Time;durP1;ratioP1;P1;durP2;ratioP2;P2;SDS_P1;SDS_P2;PMS_P1;PMS_P2;Temp;Humidity;BMP_temperature;BMP_pressure;BME280_temperature;BME280_humidity;BME280_pressure;Samples;Min_cycle;Max_cycle;Signal;HPM_P1;HPM_P2
2022/09/03 00:01:33;;;;;;;5.47;3.67;;;;;;;18.67;100.00;94397.03;5039973;28;20021;-90
2022/09/03 00:04:10;;;;;;;9.65;3.72;;;;;;;18.29;100.00;94409.16;5022563;28;20025;-90
2022/09/03 00:06:47;;;;;;;9.55;3.55;;;;;;;18.08;100.00;94407.13;5038712;28;20032;-91
2022/09/03 00:09:21;;;;;;;5.20;3.42;;;;;;;18.28;100.00;94399.59;5038797;28;20047;-91
2022/09/03 00:12:07;;;;;;;5.78;3.42;;;;;;;18.56;100.00;94411.72;5039034;28;20028;-90
2022/09/03 00:14:36;;;;;;;5.25;3.10;;;;;;;18.60;100.00;94410.00;5038456;28;20029;-90
2022/09/03 00:17:12;;;;;;;5.13;3.63;;;;;;;18.50;100.00;94411.88;5038585;28;20032;-90
2022/09/03 00:19:57;;;;;;;5.30;3.58;;;;;;;18.55;100.00;94405.63;5039435;28;20434;-91
2022/09/03 00:22:44;;;;;;;6.60;3.42;;;;;;;18.37;100.00;94413.63;5038743;28;20354;-90
2022/09/03 00:25:21;;;;;;;7.93;3.40;;;;;;;18.69;100.00;94420.56;5021960;28;20071;-90
2022/09/03 00:27:55;;;;;;;11.90;3.80;;;;;;;18.63;100.00;94419.97;5038488;28;20048;-90
2022/09/03 00:30:23;;;;;;;7.32;3.28;;;;;;;18.34;100.00;94410.84;5038651;28;20067;-91
2022/09/03 00:33:06;;;;;;;;;;;;;;;;;;;;;
2022/09/03 00:35:43;;;;;;;3.67;3.08;;;;;;;18.76;100.00;94413.69;5039670;28;20027;-90
2022/09/03 00:38:09;;;;;;;7.93;3.30;;;;;;;18.51;100.00;94418.78;5038471;28;20107;-90
2022/09/03 00:40:41;;;;;;;6.47;3.30;;;;;;;18.82;100.00;94416.94;5021850;28;20430;-90
2022/09/03 00:43:14;;;;;;;4.95;3.35;;;;;;;18.93;100.00;94417.34;5038165;28;20052;-90
2022/09/03 00:45:51;;;;;;;9.82;3.20;;;;;;;19.17;100.00;94434.63;5055669;28;20045;-90
2022/09/03 00:48:31;;;;;;;3.88;2.97;;;;;;;19.23;100.00;94436.03;5041389;28;20025;-90
2022/09/03 00:51:42;;;;;;;;;;;;;;;;;;;;;
2022/09/03 00:54:58;;;;;;;16.90;3.35;;;;;;;18.03;100.00;94422.41;5043216;28;20027;-91
2022/09/03 00:57:52;;;;;;;8.63;3.35;;;;;;;18.40;100.00;94430.00;4978297;28;20439;-91
2022/09/03 01:00:19;;;;;;;6.30;3.83;;;;;;;18.82;100.00;94426.78;4962478;28;20031;-92
2022/09/03 01:03:08;;;;;;;3.90;3.13;;;;;;;18.97;100.00;94428.13;5020894;28;20286;-91
2022/09/03 01:06:05;;;;;;;6.28;3.47;;;;;;;18.83;100.00;94434.41;5041714;28;20353;-91
2022/09/03 01:08:52;;;;;;;4.22;3.05;;;;;;;18.90;100.00;94437.38;5041556;28;20041;-91
2022/09/03 01:11:26;;;;;;;4.78;3.25;;;;;;;18.53;100.00;94444.19;5041270;28;20131;-91
2022/09/03 01:14:33;;;;;;;8.13;3.63;;;;;;;18.41;100.00;94448.28;5059065;28;20080;-90
2022/09/03 01:17:20;;;;;;;4.97;3.10;;;;;;;17.84;100.00;94439.41;4981130;28;20038;-90
2022/09/03 01:19:54;;;;;;;4.95;3.28;;;;;;;17.53;100.00;94445.59;4981597;28;20041;-91
2022/09/03 01:22:58;;;;;;;4.43;3.22;;;;;;;17.63;100.00;94445.28;5021091;28;20036;-91
2022/09/03 01:25:30;;;;;;;6.50;3.50;;;;;;;18.02;100.00;94440.22;5030415;28;20051;-89
2022/09/03 01:28:16;;;;;;;5.13;3.05;;;;;;;18.20;100.00;94440.97;5058609;28;20509;-90
2022/09/03 01:30:46;;;;;;;3.88;2.85;;;;;;;18.33;100.00;94438.44;5058957;28;20036;-91
2022/09/03 01:33:30;;;;;;;5.57;3.20;;;;;;;18.42;100.00;94433.13;5040876;28;20043;-91
2022/09/03 01:35:56;;;;;;;6.93;3.20;;;;;;;18.31;100.00;94430.03;5024603;28;20029;-90
2022/09/03 01:38:21;;;;;;;5.63;3.20;;;;;;;18.18;100.00;94432.53;5040824;28;20349;-91
2022/09/03 01:42:12;;;;;;;7.05;2.97;;;;;;;18.40;100.00;94432.66;5058511;28;20024;-91
2022/09/03 01:44:02;;;;;;;6.28;2.95;;;;;;;18.56;100.00;94433.72;5058260;28;20029;-91
2022/09/03 01:46:44;;;;;;;7.72;3.00;;;;;;;17.82;100.00;94428.34;5040881;28;20051;-91
2022/09/03 01:49:16;;;;;;;3.88;2.83;;;;;;;17.95;100.00;94426.59;5024554;28;20048;-91
2022/09/03 01:51:42;;;;;;;5.68;3.13;;;;;;;18.17;100.00;94430.22;5024406;28;20040;-90
2022/09/03 01:54:41;;;;;;;4.70;3.10;;;;;;;18.44;100.00;94429.06;5040275;28;20036;-91
2022/09/03 01:57:29;;;;;;;4.63;3.00;;;;;;;18.42;100.00;94435.78;5024287;28;20021;-91
2022/09/03 02:00:03;;;;;;;7.95;3.00;;;;;;;18.50;100.00;94438.41;5052872;28;20415;-91
2022/09/03 02:02:31;;;;;;;6.22;3.17;;;;;;;18.46;100.00;94434.84;5043755;28;20035;-92
2022/09/03 02:05:24;;;;;;;7.15;2.97;;;;;;;18.33;100.00;94435.78;5060504;28;20031;-91
2022/09/03 02:08:10;;;;;;;9.03;3.40;;;;;;;17.73;100.00;94428.34;5039446;28;20040;-91
2022/09/03 02:10:40;;;;;;;5.68;3.53;;;;;;;17.58;100.00;94429.56;5043054;28;20329;-90
2022/09/03 02:13:10;;;;;;;9.05;3.28;;;;;;;18.26;100.00;94433.63;5060085;28;20064;-90
2022/09/03 02:15:38;;;;;;;5.63;3.33;;;;;;;18.35;100.00;94430.94;5059846;28;20448;-90
2022/09/03 02:18:07;;;;;;;5.72;3.10;;;;;;;18.42;100.00;94428.63;5043365;28;20074;-90
2022/09/03 02:20:32;;;;;;;8.98;3.65;;;;;;;18.46;100.00;94426.88;5043608;28;20035;-90
2022/09/03 02:23:01;;;;;;;5.10;3.15;;;;;;;18.46;100.00;94426.88;5043319;28;20342;-90
2022/09/03 02:25:41;;;;;;;9.45;3.17;;;;;;;18.34;100.00;94419.59;5060049;28;20103;-91
2022/09/03 02:28:18;;;;;;;;;;;;;;;;;;;;;
2022/09/03 02:30:46;;;;;;;7.38;2.85;;;;;;;18.15;100.00;94414.63;5061254;28;20034;-91
2022/09/03 02:33:14;;;;;;;9.35;3.25;;;;;;;17.87;100.00;94412.25;5050719;28;20062;-92
2022/09/03 02:35:45;;;;;;;6.97;3.45;;;;;;;17.56;100.00;94402.59;5049926;28;20036;-92
2022/09/03 02:38:24;;;;;;;5.97;3.40;;;;;;;17.24;100.00;94413.28;5053322;28;20040;-92
2022/09/03 02:40:53;;;;;;;10.68;3.53;;;;;;;17.48;100.00;94404.16;5049276;28;20036;-91
2022/09/03 02:43:41;;;;;;;8.02;3.55;;;;;;;17.47;100.00;94404.44;5039560;28;20048;-91
2022/09/03 02:46:14;;;;;;;7.45;3.53;;;;;;;17.81;100.00;94410.88;5076313;28;20067;-91
2022/09/03 02:48:39;;;;;;;6.82;3.72;;;;;;;17.62;100.00;94404.00;5059385;28;20028;-91
2022/09/03 02:51:17;;;;;;;;;;;;;;;;;;;;;
2022/09/03 02:53:50;;;;;;;8.30;3.58;;;;;;;18.06;100.00;94417.28;5060642;28;20437;-90
2022/09/03 02:56:21;;;;;;;8.30;3.30;;;;;;;18.16;100.00;94412.75;5043761;28;20056;-92
2022/09/03 02:58:46;;;;;;;11.50;3.60;;;;;;;18.04;100.00;94400.13;5049328;28;20056;-91
2022/09/03 03:01:12;;;;;;;4.40;3.03;;;;;;;17.73;100.00;94406.34;5039290;28;20033;-91
2022/09/03 03:03:37;;;;;;;8.40;3.30;;;;;;;18.01;100.00;94398.06;5023264;28;20029;-91
2022/09/03 03:06:05;;;;;;;6.38;3.30;;;;;;;18.14;100.00;94402.44;5022724;28;20402;-90
2022/09/03 03:08:32;;;;;;;7.35;3.63;;;;;;;18.02;100.00;94403.09;5023146;28;20068;-91
2022/09/03 03:10:59;;;;;;;6.40;3.03;;;;;;;18.20;100.00;94403.84;5022643;28;20123;-92
2022/09/03 03:13:29;;;;;;;4.97;3.30;;;;;;;17.77;100.00;94401.97;5023128;28;20094;-91
2022/09/03 03:16:08;;;;;;;;;;;;;;;;;;;;;
2022/09/03 03:18:34;;;;;;;5.95;3.22;;;;;;;17.88;100.00;94403.22;5040555;28;20025;-92
2022/09/03 03:21:10;;;;;;;6.32;2.83;;;;;;;17.98;100.00;94411.97;5038964;28;20119;-92
2022/09/03 03:23:37;;;;;;;6.30;3.70;;;;;;;17.53;100.00;94406.63;5039342;28;20047;-92
2022/09/03 03:26:04;;;;;;;7.32;3.70;;;;;;;17.89;100.00;94410.06;5022569;28;20055;-92
2022/09/03 03:28:33;;;;;;;7.63;3.05;;;;;;;17.43;100.00;94401.66;5038805;28;20028;-91
2022/09/03 03:31:11;;;;;;;6.05;3.42;;;;;;;17.35;100.00;94397.88;5039234;28;20029;-91
2022/09/03 03:33:47;;;;;;;;;;;;;;;;;;;;;
2022/09/03 03:36:24;;;;;;;;;;;;;;;;;;;;;
2022/09/03 03:38:53;;;;;;;5.03;3.10;;;;;;;17.70;100.00;94393.72;5040251;28;20031;-92
2022/09/03 03:41:21;;;;;;;13.93;3.35;;;;;;;17.47;100.00;94394.66;5022361;28;20334;-92
2022/09/03 03:43:53;;;;;;;5.70;3.60;;;;;;;17.72;100.00;94396.84;5038654;28;20056;-91
2022/09/03 03:46:21;;;;;;;5.45;3.42;;;;;;;17.74;100.00;94397.28;5022825;28;20075;-91
2022/09/03 03:48:50;;;;;;;4.38;3.25;;;;;;;17.93;100.00;94411.03;5022607;28;20388;-92
2022/09/03 03:51:23;;;;;;;10.38;3.78;;;;;;;18.06;100.00;94406.69;5022698;28;20057;-90
2022/09/03 03:53:53;;;;;;;4.90;3.08;;;;;;;17.59;100.00;94395.91;5023229;28;20354;-92
2022/09/03 03:56:22;;;;;;;3.70;2.92;;;;;;;17.86;100.00;94394.81;5038834;28;20099;-91
2022/09/03 03:58:50;;;;;;;9.60;3.40;;;;;;;17.81;100.00;94402.94;5038606;28;20350;-91
2022/09/03 04:01:28;;;;;;;5.75;3.10;;;;;;;18.08;100.00;94401.06;5038576;28;20111;-91
2022/09/03 04:04:04;;;;;;;;;;;;;;;;;;;;;
2022/09/03 04:06:30;;;;;;;8.85;3.03;;;;;;;18.15;100.00;94398.72;5039875;28;20354;-92
2022/09/03 04:08:56;;;;;;;4.90;3.20;;;;;;;18.34;100.00;94406.31;5041522;28;20037;-91
2022/09/03 04:11:32;;;;;;;;;;;;;;;;;;;;;
2022/09/03 04:14:00;;;;;;;15.82;4.30;;;;;;;18.15;100.00;94403.25;5059724;28;20020;-91
2022/09/03 04:16:26;;;;;;;5.20;3.30;;;;;;;17.69;100.00;94400.88;5058497;28;20108;-91
2022/09/03 04:19:01;;;;;;;7.43;3.38;;;;;;;17.65;100.00;94411.34;5058402;28;20055;-91
2022/09/03 04:21:28;;;;;;;5.47;3.50;;;;;;;18.06;100.00;94419.13;5039202;28;20029;-91
2022/09/03 04:23:55;;;;;;;9.07;3.83;;;;;;;17.81;100.00;94424.13;5025858;28;20074;-91
2022/09/03 04:26:25;;;;;;;7.13;3.50;;;;;;;18.03;100.00;94422.41;5025479;28;20033;-91
2022/09/03 04:28:51;;;;;;;7.60;3.50;;;;;;;18.12;100.00;94431.16;5025872;28;20036;-91
2022/09/03 04:31:20;;;;;;;9.60;3.42;;;;;;;17.84;100.00;94428.78;5025952;28;20040;-91
2022/09/03 04:33:53;;;;;;;6.78;4.00;;;;;;;17.22;100.00;94426.06;5025739;28;20041;-91
2022/09/03 04:36:31;;;;;;;;;;;;;;;;;;;;;
2022/09/03 04:39:09;;;;;;;5.60;3.60;;;;;;;17.43;100.00;94401.66;5043429;28;20032;-92
2022/09/03 04:41:36;;;;;;;6.60;3.47;;;;;;;17.73;100.00;94401.03;5043219;28;20124;-92
2022/09/03 04:44:02;;;;;;;7.45;3.50;;;;;;;17.74;100.00;94397.28;5042174;28;20025;-91
2022/09/03 04:46:34;;;;;;;12.15;3.60;;;;;;;18.02;100.00;94402.28;5025778;28;20075;-91
2022/09/03 04:49:07;;;;;;;4.43;3.20;;;;;;;17.95;100.00;94406.19;5026516;28;20029;-91
2022/09/03 04:51:32;;;;;;;5.03;3.65;;;;;;;17.90;100.00;94403.69;5026304;28;20032;-91
2022/09/03 04:54:09;;;;;;;;;;;;;;;;;;;;;
2022/09/03 04:56:35;;;;;;;6.18;3.72;;;;;;;17.20;100.00;94404.41;5043569;28;20047;-94
2022/09/03 04:59:14;;;;;;;;;;;;;;;;;;;;;
2022/09/03 05:01:42;;;;;;;11.93;2.95;;;;;;;17.47;100.00;94402.59;5043391;28;20021;-94
2022/09/03 05:04:11;;;;;;;5.00;3.60;;;;;;;17.44;100.00;94402.41;5025909;28;20025;-94
2022/09/03 05:06:46;;;;;;;;;;;;;;;;;;;;;
2022/09/03 05:09:12;;;;;;;6.72;3.70;;;;;;;17.95;100.00;94403.53;5043211;28;20021;-94
2022/09/03 05:11:40;;;;;;;10.52;3.83;;;;;;;18.27;100.00;94405.25;5025703;28;20501;-94
2022/09/03 05:14:13;;;;;;;5.28;3.13;;;;;;;18.40;100.00;94414.09;5025767;28;20041;-95
2022/09/03 05:16:38;;;;;;;5.47;3.70;;;;;;;17.94;100.00;94409.94;5025900;28;20029;-94
2022/09/03 05:19:07;;;;;;;12.38;4.00;;;;;;;17.60;100.00;94406.19;5025033;28;20310;-94
2022/09/03 05:21:34;;;;;;;10.65;3.70;;;;;;;18.03;100.00;94393.25;5041814;28;20024;-93
2022/09/03 05:24:00;;;;;;;7.15;3.45;;;;;;;18.27;100.00;94391.97;5041717;28;20120;-95
2022/09/03 05:26:31;;;;;;;5.25;2.95;;;;;;;18.55;100.00;94400.31;5025336;28;20064;-93
2022/09/03 05:29:06;;;;;;;12.07;3.47;;;;;;;18.68;100.00;94397.78;5025237;28;20028;-94
2022/09/03 05:31:35;;;;;;;4.55;2.85;;;;;;;18.72;100.00;94407.47;5025479;28;20398;-94
2022/09/03 05:34:09;;;;;;;4.30;3.25;;;;;;;18.65;100.00;94401.88;5024210;28;20094;-93
2022/09/03 05:36:38;;;;;;;5.20;3.70;;;;;;;17.84;100.00;94402.28;5058855;28;20066;-94
2022/09/03 05:39:07;;;;;;;5.00;3.80;;;;;;;17.61;100.00;94405.09;5025120;28;20029;-94
2022/09/03 05:41:35;;;;;;;9.90;3.25;;;;;;;18.35;100.00;94412.38;5058933;28;20430;-93
2022/09/03 05:44:03;;;;;;;6.97;3.60;;;;;;;18.60;100.00;94413.44;5058690;28;20040;-93
2022/09/03 05:46:33;;;;;;;6.40;3.47;;;;;;;18.60;100.00;94410.78;5041053;28;20036;-94
2022/09/03 05:49:02;;;;;;;6.57;3.40;;;;;;;18.63;100.00;94402.19;5041554;28;20029;-93
2022/09/03 05:51:28;;;;;;;4.70;3.53;;;;;;;18.75;100.00;94411.34;5058592;28;20033;-93
2022/09/03 05:54:13;;;;;;;;;;;;;;;;;;;;;
2022/09/03 05:56:49;;;;;;;;;;;;;;;;;;;;;
2022/09/03 05:59:35;;;;;;;;;;;;;;;;;;;;;
2022/09/03 06:02:11;;;;;;;;;;;;;;;;;;;;;
2022/09/03 06:07:58;;;;;;;6.30;3.60;;;;;;;17.88;100.00;94421.78;5058339;28;20473;-94
2022/09/03 06:10:33;;;;;;;;;;;;;;;;;;;;;
2022/09/03 06:13:02;;;;;;;5.68;3.60;;;;;;;18.36;100.00;94419.25;5058199;28;20024;-94
2022/09/03 06:15:40;;;;;;;;;;;;;;;;;;;;;
2022/09/03 06:18:13;;;;;;;9.13;4.13;;;;;;;18.94;100.00;94432.22;5042314;28;20028;-92
2022/09/03 06:20:41;;;;;;;7.30;3.73;;;;;;;19.21;100.00;94430.22;5057663;28;20415;-93
2022/09/03 06:23:09;;;;;;;7.00;4.00;;;;;;;18.43;100.00;94432.81;5057706;28;20051;-93
2022/09/03 06:25:35;;;;;;;5.40;4.00;;;;;;;18.33;100.00;94422.53;5057728;28;20032;-93
2022/09/03 06:28:01;;;;;;;7.32;3.90;;;;;;;19.48;100.00;94429.00;5040260;28;20039;-93
2022/09/03 06:30:26;;;;;;;16.13;3.40;;;;;;;20.05;100.00;94426.09;5057586;28;20056;-93
2022/09/03 06:33:02;;;;;;;;;;;;;;;;;;;;;
2022/09/03 06:35:38;;;;;;;;;;;;;;;;;;;;;
2022/09/03 06:38:06;;;;;;;4.13;3.03;;;;;;;20.78;100.00;94416.00;5057752;28;20341;-94
2022/09/03 06:40:34;;;;;;;8.68;2.90;;;;;;;21.16;100.00;94419.47;5040049;28;20056;-92
2022/09/03 06:43:01;;;;;;;5.07;2.55;;;;;;;21.44;100.00;94413.47;5039813;28;20064;-92
2022/09/03 06:45:28;;;;;;;8.52;3.25;;;;;;;20.31;100.00;94406.47;5056581;28;20111;-92
2022/09/03 06:48:01;;;;;;;3.33;2.58;;;;;;;21.29;100.00;94405.03;5069033;28;20028;-92
2022/09/03 06:50:28;;;;;;;8.20;2.95;;;;;;;21.36;100.00;94414.34;5039331;28;20033;-92
2022/09/03 06:52:54;;;;;;;4.30;2.97;;;;;;;20.87;100.00;94418.59;5057056;28;20029;-93
2022/09/03 06:55:22;;;;;;;3.40;2.88;;;;;;;20.54;100.00;94408.75;5023120;28;20047;-93
2022/09/03 06:57:55;;;;;;;9.20;3.63;;;;;;;20.51;100.00;94420.03;5057350;28;20115;-92
2022/09/03 07:00:22;;;;;;;9.18;3.15;;;;;;;20.55;100.00;94421.72;5040292;28;20036;-91
2022/09/03 07:02:57;;;;;;;4.95;3.03;;;;;;;20.12;100.00;94429.03;5056822;28;20033;-91
2022/09/03 07:05:25;;;;;;;3.88;2.40;;;;;;;21.13;100.00;94426.25;5056935;28;20025;-92
2022/09/03 07:07:52;;;;;;;3.85;2.67;;;;;;;21.69;100.00;94430.22;5039293;28;20075;-91
2022/09/03 07:10:29;;;;;;;;;;;;;;;;;;;;;
2022/09/03 07:12:57;;;;;;;7.15;2.70;;;;;;;21.71;100.00;94435.22;5076745;28;20446;-92
2022/09/03 07:15:25;;;;;;;9.85;2.20;;;;;;;21.73;100.00;94438.31;5059287;28;20050;-91
2022/09/03 07:17:58;;;;;;;7.40;2.40;;;;;;;22.08;100.00;94437.00;5076649;28;20036;-92
2022/09/03 07:20:23;;;;;;;3.33;2.30;;;;;;;22.13;100.00;94440.22;5059879;28;20055;-92
2022/09/03 07:22:51;;;;;;;5.45;2.58;;;;;;;21.21;100.00;94445.13;5059345;28;20353;-91
2022/09/03 07:25:21;;;;;;;2.80;2.50;;;;;;;21.65;100.00;94452.50;5076690;28;20036;-92
2022/09/03 07:27:56;;;;;;;;;;;;;;;;;;;;;
2022/09/03 07:30:32;;;;;;;;;;;;;;;;;;;;;
2022/09/03 07:33:10;;;;;;;;;;;;;;;;;;;;;
2022/09/03 07:35:36;;;;;;;3.20;2.33;;;;;;;21.35;100.00;94437.56;5060641;28;20089;-92
2022/09/03 07:38:03;;;;;;;6.15;2.90;;;;;;;21.65;100.00;94444.53;5076537;28;20107;-92
2022/09/03 07:40:39;;;;;;;6.38;2.70;;;;;;;22.10;100.00;94445.44;5042553;28;20043;-92
2022/09/03 07:43:07;;;;;;;5.03;2.15;;;;;;;22.41;100.00;94435.97;5060179;28;20078;-91
2022/09/03 07:45:35;;;;;;;8.32;2.63;;;;;;;22.07;100.00;94433.53;5042480;28;20337;-91
2022/09/03 07:48:00;;;;;;;4.43;2.90;;;;;;;21.60;100.00;94427.66;5076402;28;20039;-91
2022/09/03 07:50:36;;;;;;;4.82;2.80;;;;;;;21.96;100.00;94437.84;5041842;28;20025;-92
2022/09/03 07:53:05;;;;;;;5.80;2.78;;;;;;;22.21;100.00;94433.19;5060018;28;20032;-92
2022/09/03 07:55:32;;;;;;;5.50;2.80;;;;;;;22.28;100.00;94433.34;5059480;28;20024;-91
2022/09/03 07:58:00;;;;;;;3.72;2.78;;;;;;;22.40;100.00;94448.56;5046266;28;20021;-92
2022/09/03 08:00:26;;;;;;;4.70;2.53;;;;;;;22.70;100.00;94450.09;5062700;28;20097;-91
2022/09/03 08:02:54;;;;;;;7.45;2.88;;;;;;;21.47;100.00;94453.56;5062647;28;20115;-92
2022/09/03 08:05:26;;;;;;;5.75;2.92;;;;;;;20.63;100.00;94450.13;5062769;28;20509;-92
2022/09/03 08:08:02;;;;;;;7.70;3.47;;;;;;;20.91;100.00;94454.09;5063432;28;20122;-91
2022/09/03 08:10:29;;;;;;;3.83;2.70;;;;;;;21.65;100.00;94460.50;5046815;28;20275;-91
2022/09/03 08:12:55;;;;;;;7.38;3.38;;;;;;;20.29;100.00;94462.66;5080093;28;20056;-92
2022/09/03 08:15:23;;;;;;;7.63;2.67;;;;;;;20.16;100.00;94466.38;5062189;28;20450;-92
2022/09/03 08:17:50;;;;;;;6.90;2.70;;;;;;;20.22;100.00;94462.41;5062182;28;20035;-91
2022/09/03 08:20:19;;;;;;;5.82;3.15;;;;;;;21.07;100.00;94474.75;5062563;28;20028;-92
2022/09/03 08:22:45;;;;;;;4.90;3.13;;;;;;;20.84;100.00;94475.16;5062391;28;20028;-91
2022/09/03 08:25:12;;;;;;;3.97;3.25;;;;;;;21.20;100.00;94473.63;5062338;28;20036;-91
2022/09/03 08:27:52;;;;;;;5.18;2.63;;;;;;;21.09;100.00;94478.63;5062327;28;20029;-91
2022/09/03 08:30:20;;;;;;;5.05;2.95;;;;;;;20.65;100.00;94475.66;5046619;28;20024;-91
2022/09/03 08:32:48;;;;;;;6.30;3.17;;;;;;;21.95;100.00;94476.25;5079575;28;20441;-91
2022/09/03 08:35:16;;;;;;;5.07;2.75;;;;;;;22.11;100.00;94489.69;5045658;28;20025;-91
2022/09/03 08:37:41;;;;;;;9.10;2.90;;;;;;;21.92;100.00;94479.59;5061968;28;20048;-92
2022/09/03 08:40:08;;;;;;;5.60;3.03;;;;;;;22.08;100.00;94480.44;5061783;28;20025;-91
2022/09/03 08:43:11;;;;;;;5.95;2.80;;;;;;;22.39;100.00;94479.03;5061628;28;20028;-91
2022/09/03 08:45:47;;;;;;;4.85;2.80;;;;;;;22.68;100.00;94479.03;5028563;28;20060;-91
2022/09/03 08:48:16;;;;;;;7.72;2.90;;;;;;;22.79;100.00;94484.63;5063182;28;20368;-91
2022/09/03 08:50:54;;;;;;;6.47;3.13;;;;;;;22.46;100.00;94484.56;5045391;28;20033;-91
2022/09/03 08:53:31;;;;;;;3.33;2.85;;;;;;;21.91;100.00;94486.06;5046067;28;20040;-91
2022/09/03 08:56:11;;;;;;;7.25;3.17;;;;;;;22.28;100.00;94496.63;5046217;28;20047;-91
2022/09/03 08:58:47;;;;;;;;;;;;;;;;;;;;;
2022/09/03 09:01:35;;;;;;;3.80;3.20;;;;;;;22.62;100.00;94496.44;5062920;28;20012;-91
2022/09/03 09:04:40;;;;;;;5.07;3.20;;;;;;;22.15;100.00;94507.34;5079536;28;20459;-91
2022/09/03 09:07:15;;;;;;;7.43;3.38;;;;;;;21.96;100.00;94507.94;5078179;28;20323;-91
2022/09/03 09:09:54;;;;;;;6.63;3.85;;;;;;;22.45;100.00;94509.69;5044894;28;20055;-92
2022/09/03 09:12:24;;;;;;;4.95;3.25;;;;;;;23.03;100.00;94510.47;5061328;28;20127;-92
2022/09/03 09:15:07;;;;;;;;;;;;;;;;;;;;;
2022/09/03 09:17:56;;;;;;;6.35;2.70;;;;;;;24.66;100.00;94505.22;5078946;28;20019;-91
2022/09/03 09:20:31;;;;;;;3.35;2.50;;;;;;;23.09;100.00;94494.91;5061140;28;20028;-91
2022/09/03 09:23:05;;;;;;;3.80;2.97;;;;;;;21.98;100.00;94491.63;5044888;28;20029;-91
2022/09/03 09:25:38;;;;;;;4.53;3.45;;;;;;;22.13;100.00;94482.91;5045110;28;20028;-91
2022/09/03 09:28:12;;;;;;;6.03;3.42;;;;;;;22.14;100.00;94489.00;5061779;28;20069;-91
2022/09/03 09:30:37;;;;;;;4.78;3.20;;;;;;;23.51;100.00;94493.66;5060968;28;20068;-91
2022/09/03 09:33:10;;;;;;;5.05;3.50;;;;;;;23.38;100.00;94499.09;5078645;28;20071;-91
2022/09/03 09:35:43;;;;;;;6.35;3.00;;;;;;;24.29;100.00;94503.75;5045000;28;20029;-91
2022/09/03 09:38:11;;;;;;;5.33;2.83;;;;;;;22.62;100.00;94502.53;5061735;28;20029;-92
2022/09/03 09:40:40;;;;;;;4.53;2.90;;;;;;;22.08;100.00;94511.69;5044834;28;20565;-91
2022/09/03 09:43:07;;;;;;;7.75;3.58;;;;;;;22.22;100.00;94506.78;5044390;28;20054;-91
2022/09/03 09:45:33;;;;;;;4.57;3.20;;;;;;;22.45;100.00;94508.91;5044545;28;20028;-92
2022/09/03 09:48:00;;;;;;;8.25;3.75;;;;;;;23.26;100.00;94508.00;5044422;28;20342;-91
2022/09/03 09:50:26;;;;;;;8.15;3.78;;;;;;;23.32;100.00;94502.38;5044639;28;20028;-91
2022/09/03 09:53:07;;;;;;;7.65;3.53;;;;;;;23.83;100.00;94501.63;5044045;28;20448;-91
2022/09/03 09:55:40;;;;;;;6.60;3.85;;;;;;;22.44;100.00;94497.47;5044642;28;20354;-91
2022/09/03 09:58:10;;;;;;;8.07;3.90;;;;;;;23.28;100.00;94495.06;5044877;28;20045;-91
2022/09/03 10:00:36;;;;;;;6.38;3.70;;;;;;;23.98;100.00;94502.72;5044162;28;20056;-91
2022/09/03 10:03:08;;;;;;;5.10;3.55;;;;;;;23.75;100.00;94497.25;5044048;28;20426;-92
2022/09/03 10:05:35;;;;;;;6.60;3.63;;;;;;;24.26;100.00;94507.13;5034075;28;20024;-92
2022/09/03 10:08:25;;;;;;;10.65;3.47;;;;;;;24.03;100.00;94505.13;5024377;28;20423;-92
2022/09/03 10:10:53;;;;;;;8.40;3.33;;;;;;;23.38;100.00;94504.44;5041139;28;20033;-92
2022/09/03 10:13:55;;;;;;;;;;;;;;;;;;;;;
2022/09/03 10:16:27;;;;;;;6.30;2.97;;;;;;;24.28;100.00;94486.91;5057865;28;20033;-92
2022/09/03 10:19:11;;;;;;;4.07;2.70;;;;;;;25.07;100.00;94489.50;5040186;28;20448;-92
2022/09/03 10:21:54;;;;;;;5.18;2.92;;;;;;;25.25;100.00;94495.16;5057776;28;20491;-91
2022/09/03 10:24:43;;;;;;;;;;;;;;;;;;;;;
2022/09/03 10:27:20;;;;;;;;;;;;;;;;;;;;;
2022/09/03 10:29:49;;;;;;;3.38;2.53;;;;;;;26.06;100.00;94491.75;5041325;28;20016;-92
2022/09/03 10:32:34;;;;;;;4.00;2.40;;;;;;;26.41;100.00;94503.31;5040076;28;20044;-93
2022/09/03 10:35:11;;;;;;;6.25;2.65;;;;;;;24.61;100.00;94506.28;5057406;28;20083;-92
2022/09/03 10:38:08;;;;;;;;;;;;;;;;;;;;;
2022/09/03 10:40:45;;;;;;;8.27;2.75;;;;;;;24.79;100.00;94511.19;5057407;28;20017;-91
2022/09/03 10:43:30;;;;;;;;;;;;;;;;;;;;;
2022/09/03 10:46:06;;;;;;;6.05;2.55;;;;;;;24.14;100.00;94506.13;5057223;28;20021;-92
2022/09/03 10:48:44;;;;;;;8.02;3.53;;;;;;;24.76;100.00;94514.56;5039477;28;20060;-92
2022/09/03 10:51:16;;;;;;;6.03;2.90;;;;;;;25.53;100.00;94504.78;5057861;28;20099;-91
2022/09/03 10:54:05;;;;;;;3.45;2.70;;;;;;;25.98;100.00;94502.38;5023082;28;20029;-92
2022/09/03 10:56:48;;;;;;;3.47;2.22;;;;;;;26.21;100.00;94490.81;5044082;28;20103;-92
2022/09/03 10:59:49;;;;;;;4.20;2.37;;;;;;;26.65;96.27;94494.75;5057091;28;20032;-92
2022/09/03 11:02:47;;;;;;;;;;;;;;;;;;;;;
2022/09/03 11:05:28;;;;;;;5.50;2.10;;;;;;;27.01;88.63;94477.47;5056948;28;20338;-92
2022/09/03 11:08:06;;;;;;;3.65;2.10;;;;;;;27.86;85.36;94496.56;5056792;28;20116;-92
2022/09/03 11:10:36;;;;;;;5.53;2.22;;;;;;;27.64;83.81;94491.03;5039083;28;20434;-92
2022/09/03 11:13:01;;;;;;;2.87;2.13;;;;;;;25.89;99.40;94482.31;5056783;28;20418;-92
2022/09/03 11:15:36;;;;;;;4.03;2.60;;;;;;;26.33;100.00;94486.34;5057000;28;20115;-92
2022/09/03 11:18:34;;;;;;;;;;;;;;;;;;;;;
2022/09/03 11:21:03;;;;;;;4.93;2.53;;;;;;;27.40;88.45;94498.50;5040371;28;20020;-92
2022/09/03 11:23:32;;;;;;;3.45;2.30;;;;;;;28.24;85.36;94491.00;5039250;28;20048;-92
2022/09/03 11:26:02;;;;;;;4.32;1.85;;;;;;;28.31;83.50;94494.50;5039003;28;20456;-91
2022/09/03 11:29:00;;;;;;;6.53;2.17;;;;;;;28.06;79.88;94497.81;5039198;28;20418;-91
2022/09/03 11:31:58;;;;;;;2.20;1.73;;;;;;;27.55;85.22;94490.59;5055907;28;20116;-91
2022/09/03 11:34:28;;;;;;;3.58;2.00;;;;;;;28.27;86.06;94499.09;5056427;28;20174;-91
2022/09/03 11:37:34;;;;;;;;;;;;;;;;;;;;;
2022/09/03 11:40:07;;;;;;;6.88;2.25;;;;;;;27.88;86.29;94507.72;5042394;28;20335;-91
2022/09/03 11:42:36;;;;;;;4.47;2.13;;;;;;;27.39;99.53;94505.03;5038942;28;20033;-92
2022/09/03 11:45:34;;;;;;;3.97;2.10;;;;;;;28.40;83.82;94507.59;5038651;28;20075;-91
2022/09/03 11:48:00;;;;;;;5.10;2.00;;;;;;;28.31;83.17;94505.28;5056613;28;20078;-90
2022/09/03 11:50:37;;;;;;;4.35;2.17;;;;;;;28.67;79.20;94507.31;5056405;28;20029;-89
2022/09/03 11:53:14;;;;;;;5.30;1.90;;;;;;;29.17;75.29;94498.56;5040064;28;20090;-91
2022/09/03 11:55:55;;;;;;;5.57;1.50;;;;;;;29.83;76.64;94493.13;5056331;28;20039;-91
2022/09/03 11:58:34;;;;;;;3.92;1.80;;;;;;;29.45;75.83;94491.66;5055339;28;20082;-91
2022/09/03 12:01:02;;;;;;;5.50;2.05;;;;;;;29.58;73.44;94488.56;5038827;28;20029;-92
2022/09/03 12:03:56;;;;;;;4.53;2.10;;;;;;;27.62;76.07;94487.94;5056074;28;20411;-92
2022/09/03 12:06:41;;;;;;;;;;;;;;;;;;;;;
2022/09/03 12:09:51;;;;;;;;;;;;;;;;;;;;;
2022/09/03 12:12:45;;;;;;;2.92;1.80;;;;;;;27.21;79.37;94494.91;5057140;28;20021;-89
2022/09/03 12:15:32;;;;;;;2.30;1.67;;;;;;;27.58;83.07;94487.16;5066007;28;20090;-89
2022/09/03 12:18:18;;;;;;;6.25;2.40;;;;;;;26.33;100.00;94489.78;5057478;28;20393;-89
2022/09/03 12:20:47;;;;;;;4.20;2.38;;;;;;;25.88;100.00;94481.53;5056186;28;20029;-88
2022/09/03 12:23:34;;;;;;;5.22;2.20;;;;;;;26.30;100.00;94487.84;5055831;28;20035;-87
2022/09/03 12:26:06;;;;;;;5.88;2.20;;;;;;;25.64;100.00;94474.69;5050399;28;20034;-86
2022/09/03 12:28:36;;;;;;;3.88;2.20;;;;;;;25.56;100.00;94476.47;5058167;28;20037;-86
2022/09/03 12:31:20;;;;;;;7.05;2.80;;;;;;;25.02;100.00;94467.59;5041501;28;20034;-86
2022/09/03 12:33:48;;;;;;;9.88;2.60;;;;;;;25.17;100.00;94472.03;5075583;28;20043;-86
2022/09/03 12:36:15;;;;;;;7.45;2.67;;;;;;;25.38;100.00;94485.00;5057700;28;20348;-85
2022/09/03 12:38:41;;;;;;;8.55;2.95;;;;;;;23.98;100.00;94487.41;5057778;28;20345;-86
2022/09/03 12:41:25;;;;;;;4.38;2.70;;;;;;;23.47;100.00;94496.25;5057888;28;20031;-86
2022/09/03 12:43:56;;;;;;;7.43;2.97;;;;;;;23.68;100.00;94493.28;5055748;28;20539;-86
2022/09/03 12:46:27;;;;;;;3.70;2.80;;;;;;;24.57;100.00;94494.72;5079072;28;20124;-86
2022/09/03 12:49:02;;;;;;;8.68;3.58;;;;;;;24.21;100.00;94489.44;5061237;28;20071;-85
2022/09/03 12:51:31;;;;;;;8.98;2.95;;;;;;;23.04;100.00;94479.16;5061809;28;20036;-85
2022/09/03 12:53:57;;;;;;;6.28;3.03;;;;;;;23.30;100.00;94482.13;5061133;28;20029;-85